< < Back
Terminal Aerodrome Forecast


Current Version              Previous Versions:   1  2  3  4  5  6  7  8  9  

Terminal Aerodrome Forecast

655
FTUS42 KGSP 271845 AAA
TAFHKY
TAF AMD
KHKY 271845Z 2719/2818 09004KT P6SM SCT050
      TEMPO 2719/2720 4SM TSRA BKN040CB
     FM272000 10004KT P6SM VCTS SCT050CB
     FM280000 08006KT P6SM FEW050 SCT250
     FM280300 01004KT P6SM FEW050 SCT250
     FM280900 03005KT P6SM SCT025
     FM281300 04005KT P6SM FEW050 SCT150=

Latest METAR

780
SAUS70 KWBC 272200 RRH
MTRHKY
METAR KHKY 272153Z 06005KT 10SM CLR 27/21 A3012 RMK AO2 LTG DSNT S AND
SW SLP178 T02720211


USA.gov is the U.S. government's official web portal to all federal, state and local government web resources and services.